• Join FlightAware (Why Join?)
  • Login
  • US Flag 
10:40PM EDT


 

Airport Tracker/Info


-or-


 

Live Flight TrackerFlight Track Log ✈ AWE3997 ✈ 05-Sep-2013 ✈ KCLT - KHSV

Flight Track Log - Related Links

Times and Time Zones

All times are in EDT time to prevent confusion due to time zone crossing. See the AWE3997 flight status page for this flight to view local times or setup timezone preferences in your user account.

Time Position Orientation Groundspeed Altitude Reporting Facility
EDT Latitude Longitude Course Direction KTS MPH feet Rate Location/Type
10:49AM 34.6064 -86.6758 North 66 76 20,000  Level Memphis Center
10:50AM 34.6250 -86.6750 North 70 81 20,000  Level Memphis Center
10:51AM 34.6278 -86.6975 279° West 78 90 20,000  Level Memphis Center
10:52AM 34.6069 -86.6958 176° South 109 125 20,000  Level Memphis Center
10:53AM 34.6064 -86.6758 92° East 75 86 20,000  Level Memphis Center
10:54AM 34.6231 -86.6725 North 80 92 20,000  Level Memphis Center
10:55AM 34.6300 -86.6975 289° West 98 113 20,000  Level Memphis Center
10:56AM 34.6069 -86.6983 182° South 111 128 20,000  Level Memphis Center
10:57AM 34.6064 -86.6758 92° East 78 90 20,000  Level Memphis Center
10:58AM 34.6250 -86.6697 15° North 92 106 20,000  Level Memphis Center
10:59AM 34.6297 -86.6950 283° West 93 107 20,000  Level Memphis Center
11:00AM 34.6092 -86.6983 188° South 84 97 20,000  Level Memphis Center
11:01AM 34.6044 -86.6783 106° East 79 91 20,000  Level Memphis Center
11:02AM 34.6228 -86.6700 21° North 94 108 20,000  Level Memphis Center
11:03AM 34.6297 -86.6925 291° West 82 94 20,000  Level Memphis Center
11:04AM 34.6111 -86.7008 200° South 98 113 20,000  Level Memphis Center
11:05AM 34.6044 -86.6808 112° Southeast 99 114 20,000  Level Memphis Center
11:06AM 34.6208 -86.6700 29° Northeast 77 89 20,000  Level Memphis Center
11:07AM 34.6297 -86.6925 296° West 88 101 20,000  Level Memphis Center
11:08AM 34.6111 -86.7008 200° South 90 104 20,000  Level Memphis Center
11:09AM 34.6044 -86.6808 112° Southeast 103 119 20,000  Level Memphis Center
11:10AM 34.6186 -86.6700 32° Northeast 74 85 20,000  Level Memphis Center
11:11AM 34.6317 -86.6897 309° West 100 115 20,000  Level Memphis Center
11:12AM 34.6133 -86.7006 206° Southwest 101 116 20,000  Level Memphis Center
11:13AM 34.6022 -86.6808 124° Southeast 79 91 20,000  Level Memphis Center
11:14AM 34.6164 -86.6678 37° Northeast 79 91 20,000  Level Memphis Center
11:15AM 34.6317 -86.6872 314° West 93 107 20,000  Level Memphis Center
11:16AM 34.6153 -86.7006 214° Southwest 95 109 20,000  Level Memphis Center
11:17AM 34.6025 -86.6833 132° Southeast 89 102 20,000  Level Memphis Center
11:18AM 34.6167 -86.6703 37° Northeast 94 108 20,000  Level Memphis Center
11:19AM 34.6317 -86.6847 322° Northwest 81 93 20,000  Level Memphis Center
11:20AM 34.6175 -86.7031 227° Southwest 92 106 20,000  Level Memphis Center
11:21AM 34.6236 -86.6928 54° Northeast 55 63 20,000  Level Memphis Center
11:22AM 34.6403 -86.6994 342° North 58 67 20,000  Level Memphis Center
11:23AM 34.6614 -86.6986 North 106 122 20,000  Level Memphis Center
11:24AM 34.6797 -86.6928 15° North 65 75 20,000  Level Memphis Center
11:25AM 34.6908 -86.7125 304° West 65 75 20,000  Level Memphis Center
11:26AM 34.6739 -86.7056 161° South 75 86 20,000  Level Memphis Center
11:27AM 34.6883 -86.6950 31° Northeast 45 52 20,000  Level Memphis Center
11:28AM 34.6847 -86.7153 258° West 56 64 20,000  Level Memphis Center
11:29AM 34.6758 -86.7006 126° Southeast 73 84 20,000  Level Memphis Center
11:30AM 34.6906 -86.6997 North 44 51 20,000  Level Memphis Center
11:31AM 34.6783 -86.7131 222° Southwest 51 59 20,000  Level Memphis Center
11:32AM 34.6800 -86.6953 83° East 42 48 20,000  Level Memphis Center
11:33AM 34.6928 -86.7072 322° Northwest 50 58 20,000  Level Memphis Center
11:34AM 34.6742 -86.7106 188° South 47 54 20,000  Level Memphis Center
11:35AM 34.6822 -86.7003 46° Northeast 45 52 20,000  Level Memphis Center
11:36AM 34.6614 -86.7061 193° South 25 29 20,000  Level Memphis Center
11:37AM 34.6386 -86.7072 182° South 107 123 20,000  Level Memphis Center
11:38AM 34.6194 -86.6978 158° South 83 96 20,000  Level Memphis Center
11:39AM 34.6189 -86.6753 92° East 83 96 20,000  Level Memphis Center
11:40AM 34.6078 -86.6503 118° Southeast 81 93 20,000  Level Memphis Center
11:41AM 34.5889 -86.6511 182° South 82 94 20,000  Level Memphis Center
11:42AM 34.6019 -86.6708 309° West 80 92 20,000  Level Memphis Center
11:43AM 34.6050 -86.6986 278° West 91 105 20,000  Level Memphis Center
11:44AM 34.6156 -86.7031 341° North 60 69 20,000  Level Memphis Center
11:45AM 34.6147 -86.6778 92° East 35 40 20,000  Level Memphis Center
11:46AM 34.5997 -86.6633 142° Southeast 122 140 20,000  Level Memphis Center
11:47AM 34.6064 -86.6808 295° West 37 43 20,000  Level Memphis Center
11:48AM 34.6153 -86.6981 302° West 98 113 20,000  Level Memphis Center
11:49AM 34.5983 -86.6836 145° Southeast 31 36 20,000  Level Memphis Center
11:50AM 34.5792 -86.6719 153° Southeast 105 121 20,000  Level Memphis Center
11:51AM 34.5700 -86.6494 116° Southeast 75 86 20,000  Level Memphis Center
11:52AM 34.5778 -86.6292 65° Northeast 80 92 20,000  Level Memphis Center
11:53AM 34.5942 -86.6183 29° Northeast 79 91 20,000  Level Memphis Center
11:54AM 34.6108 -86.6200 355° North 67 77 20,000  Level Memphis Center
11:55AM 34.6239 -86.6397 309° West 80 92 20,000  Level Memphis Center
11:56AM 34.6228 -86.6650 267° West 82 94 20,000  Level Memphis Center
11:57AM 34.6044 -86.6808 215° Southwest 98 113 20,000  Level Memphis Center
11:58AM 34.5833 -86.6767 171° South 92 106 20,000  Level Memphis Center
11:59AM 34.5722 -86.6544 121° Southeast 92 106 20,000  Level Memphis Center
12:00PM 34.5736 -86.6317 86° East 81 93 20,000  Level Memphis Center
12:01PM 34.5881 -86.6186 37° Northeast 74 85 20,000  Level Memphis Center
12:02PM 34.6067 -86.6178 North 69 79 20,000  Level Memphis Center
12:03PM 34.6217 -86.6322 322° Northwest 74 85 20,000  Level Memphis Center
12:04PM 34.6244 -86.6572 278° West 71 82 20,000  Level Memphis Center
12:05PM 34.6147 -86.6728 233° Southwest 85 98 20,000  Level Memphis Center
12:06PM 34.5878 -86.6792 191° South 93 107 20,000  Level Memphis Center
12:07PM 34.5725 -86.6594 133° Southeast 93 107 20,000  Level Memphis Center
12:08PM 34.5717 -86.6369 93° East 88 101 20,000  Level Memphis Center
12:09PM 34.5839 -86.6186 51° Northeast 74 85 20,000  Level Memphis Center
12:10PM 34.5800 -86.6314 250° West 26 30 20,000  Level Memphis Center
12:11PM 34.5722 -86.6544 248° West 98 113 20,000  Level Memphis Center
12:12PM 34.5814 -86.6767 297° West 84 97 20,000  Level Memphis Center
12:13PM 34.6022 -86.6808 351° North 84 97 20,000  Level Memphis Center
12:14PM 34.6189 -86.6728 22° Northeast 78 90 20,000  Level Memphis Center
12:15PM 34.6264 -86.6497 68° East 100 115 20,000  Level Memphis Center
12:16PM 34.6194 -86.6272 111° Southeast 82 94 20,000  Level Memphis Center
12:17PM 34.6003 -86.6156 153° Southeast 80 92 20,000  Level Memphis Center
12:18PM 34.5797 -86.6264 203° Southwest 88 101 20,000  Level Memphis Center
12:19PM 34.5806 -86.6492 273° West 71 82 20,000  Level Memphis Center
12:20PM 34.5908 -86.6461 14° North 70 81 20,000  Level Memphis Center
12:21PM 34.5850 -86.6564 235° Southwest 22 25 20,000  Level Memphis Center
12:22PM 34.5786 -86.6567 182° South 47 54 20,000  Level Memphis Center
12:23PM 34.5886 -86.6436 47° Northeast 28 32 20,000  Level Memphis Center
12:24PM 34.5806 -86.6492 210° Southwest 18 21 20,000  Level Memphis Center
12:25PM 34.5889 -86.6536 336° Northwest 18 21 20,000  Level Memphis Center
12:26PM 34.5844 -86.6439 119° Southeast 15 17 20,000  Level Memphis Center
12:27PM 34.5806 -86.6542 245° Southwest 20 23 20,000  Level Memphis Center
12:28PM 34.5908 -86.6486 24° Northeast 24 28 20,000  Level Memphis Center
12:29PM 34.5803 -86.6439 160° South 36 41 20,000  Level Memphis Center
12:30PM 34.5850 -86.6564 295° West 32 37 20,000  Level Memphis Center
12:31PM 34.5886 -86.6436 71° East 36 41 20,000  Level Memphis Center
12:32PM 34.5806 -86.6517 219° Southwest 34 39 20,000  Level Memphis Center
12:33PM 34.5911 -86.6511 North 41 47 20,000  Level Memphis Center
12:34PM 34.5844 -86.6439 138° Southeast 34 39 20,000  Level Memphis Center
12:35PM 34.6017 -86.6583 325° Northwest 51 59 20,000  Level Memphis Center
12:36PM 34.6067 -86.6858 282° West 91 105 20,000  Level Memphis Center
12:37PM 34.6231 -86.6750 29° Northeast 85 98 20,000  Level Memphis Center
12:38PM 34.6058 -86.6606 145° Southeast 84 97 20,000  Level Memphis Center
12:39PM 34.5867 -86.6489 153° Southeast 101 116 20,000  Level Memphis Center
12:40PM 34.5797 -86.6239 109° East 84 97 20,000  Level Memphis Center
12:41PM 34.6003 -86.6156 18° North 71 82 20,000  Level Memphis Center
12:42PM 34.6194 -86.6272 333° Northwest 98 113 20,000  Level Memphis Center
12:43PM 34.6244 -86.6522 284° West 98 113 20,000  Level Memphis Center
12:44PM 34.6083 -86.6756 230° Southwest 98 113 20,000  Level Memphis Center
12:45PM 34.5875 -86.6764 182° South 105 121 20,000  Level Memphis Center
12:46PM 34.5725 -86.6569 133° Southeast 99 114 20,000  Level Memphis Center
12:47PM 34.5736 -86.6317 87° East 114 131 20,000  Level Memphis Center
12:48PM 34.5900 -86.6158 38° Northeast 89 102 20,000  Level Memphis Center
12:49PM 34.6108 -86.6200 351° North 89 102 20,000  Level Memphis Center
12:50PM 34.6219 -86.6422 301° West 89 102 20,000  Level Memphis Center
12:51PM 34.6186 -86.6700 262° West 89 102 20,000  Level Memphis Center
12:52PM 34.5981 -86.6811 204° Southwest 97 112 20,000  Level Memphis Center
12:53PM 34.5769 -86.6694 156° South 100 115 20,000  Level Memphis Center
12:54PM 34.5697 -86.6419 108° East 93 107 20,000  Level Memphis Center
12:55PM 34.5817 -86.6214 55° Northeast 81 93 20,000  Level Memphis Center
12:56PM 34.6003 -86.6156 14° North 86 99 20,000  Level Memphis Center
12:57PM 34.6194 -86.6297 329° Northwest 81 93 20,000  Level Memphis Center
12:58PM 34.6244 -86.6572 282° West 91 105 20,000  Level Memphis Center
12:59PM 34.6086 -86.6781 227° Southwest 93 107 20,000  Level Memphis Center
01:00PM 34.5833 -86.6767 177° South 107 123 20,000  Level Memphis Center
01:01PM 34.5722 -86.6544 121° Southeast 98 113 20,000  Level Memphis Center
01:02PM 34.5758 -86.6292 80° East 100 115 20,000  Level Memphis Center
01:03PM 34.5919 -86.6158 34° Northeast 87 100 20,000  Level Memphis Center
01:04PM 34.6108 -86.6200 350° North 79 91 20,000  Level Memphis Center
01:05PM 34.6242 -86.6447 303° West 79 91 20,000  Level Memphis Center
01:06PM 34.6167 -86.6703 250° West 92 106 20,000  Level Memphis Center
01:07PM 34.5939 -86.6789 197° South 103 119 20,000  Level Memphis Center
01:08PM 34.5747 -86.6669 153° Southeast 96 110 20,000  Level Memphis Center
01:09PM 34.5719 -86.6394 97° East 82 94 20,000  Level Memphis Center
01:10PM 34.5839 -86.6186 55° Northeast 92 106 20,000  Level Memphis Center
01:11PM 34.6044 -86.6153 North 81 93 20,000  Level Memphis Center
01:12PM 34.6194 -86.6297 322° Northwest 81 93 20,000  Level Memphis Center
01:13PM 34.6247 -86.6597 282° West 96 110 20,000  Level Memphis Center
01:14PM 34.6064 -86.6808 223° Southwest 98 113 20,000  Level Memphis Center
01:15PM 34.5814 -86.6767 172° South 104 120 20,000  Level Memphis Center
01:16PM 34.5703 -86.6519 119° Southeast 92 106 20,000  Level Memphis Center
01:17PM 34.5758 -86.6292 73° East 85 98 20,000  Level Memphis Center
01:18PM 34.5942 -86.6158 31° Northeast 85 98 20,000  Level Memphis Center
01:19PM 34.6172 -86.6222 347° North 79 91 20,000  Level Memphis Center
01:20PM 34.6242 -86.6447 291° West 85 98 20,000  Level Memphis Center
01:21PM 34.6147 -86.6728 248° West 92 106 20,000  Level Memphis Center
01:22PM 34.5939 -86.6789 194° South 107 123 20,000  Level Memphis Center
01:23PM 34.5747 -86.6644 148° Southeast 96 110 20,000  Level Memphis Center
01:24PM 34.5719 -86.6394 98° East 90 104 20,000  Level Memphis Center
01:25PM 34.5839 -86.6186 55° Northeast 85 98 20,000  Level Memphis Center
01:26PM 34.6044 -86.6153 North 79 91 20,000  Level Memphis Center
01:27PM 34.6217 -86.6347 317° Northwest 84 97 20,000  Level Memphis Center
01:28PM 34.6225 -86.6625 272° West 95 109 20,000  Level Memphis Center
01:29PM 34.6044 -86.6808 220° Southwest 100 115 20,000  Level Memphis Center
01:30PM 34.5811 -86.6717 162° South 100 115 20,000  Level Memphis Center
01:31PM 34.5703 -86.6519 124° Southeast 88 101 20,000  Level Memphis Center
01:32PM 34.5758 -86.6292 73° East 86 99 20,000  Level Memphis Center
01:33PM 34.5942 -86.6158 31° Northeast 80 92 20,000  Level Memphis Center
01:34PM 34.6153 -86.6247 341° North 80 92 20,000  Level Memphis Center
01:35PM 34.6242 -86.6472 296° West 86 99 20,000  Level Memphis Center
01:36PM 34.6125 -86.6756 243° Southwest 97 112 20,000  Level Memphis Center
01:37PM 34.5956 -86.6686 161° South 89 102 20,000  Level Memphis Center
01:38PM 34.5908 -86.6461 104° East 79 91 20,000  Level Memphis Center
01:39PM 34.5972 -86.6533 317° Northwest 54 62 20,000  Level Memphis Center
01:40PM 34.5914 -86.6664 242° Southwest 60 69 20,000  Level Memphis Center
01:41PM 34.6086 -86.6806 326° Northwest 66 76 20,000  Level Memphis Center
01:42PM 34.6297 -86.6950 331° Northwest 95 109 20,000  Level Memphis Center
01:43PM 34.6217 -86.6978 196° South 57 66 20,000  Level Memphis Center
01:44PM 34.6303 -86.7050 325° Northwest 21 24 20,000  Level Memphis Center
01:45PM 34.6236 -86.6928 124° Southeast 27 31 20,000  Level Memphis Center
01:46PM 34.6425 -86.7019 338° Northwest 53 61 20,000  Level Memphis Center
01:47PM 34.6319 -86.6947 151° Southeast 41 47 20,000  Level Memphis Center
01:48PM 34.6364 -86.7072 293° West 22 25 20,000  Level Memphis Center
01:49PM 34.6403 -86.6919 73° East 34 39 20,000  Level Memphis Center
01:50PM 34.6344 -86.7097 248° West 49 56 20,000  Level Memphis Center
01:51PM 34.6256 -86.6925 122° Southeast 76 87 20,000  Level Memphis Center
01:52PM 34.6403 -86.6944 354° North 49 56 20,000  Level Memphis Center
01:53PM 34.6306 -86.7150 240° Southwest 73 84 20,000  Level Memphis Center
01:54PM 34.6214 -86.6953 119° Southeast 55 63 20,000  Level Memphis Center
01:55PM 34.6381 -86.6894 16° North 76 87 20,000  Level Memphis Center
01:56PM 34.6367 -86.7122 266° West 62 71 20,000  Level Memphis Center
01:57PM 34.6217 -86.7003 147° Southeast 81 93 20,000  Level Memphis Center
01:58PM 34.6317 -86.6872 47° Northeast 48 55 20,000  Level Memphis Center
01:59PM 34.6406 -86.7069 299° West 58 67 20,000  Level Memphis Center
02:00PM 34.6239 -86.7078 182° South 73 84 20,000  Level Memphis Center
02:01PM 34.6211 -86.6853 99° East 54 62 20,000  Level Memphis Center
02:02PM 34.6142 -86.6628 111° Southeast 106 122 20,000  Level Memphis Center
02:03PM 34.5992 -86.6458 137° Southeast 82 94 20,000  Level Memphis Center
02:04PM 34.5975 -86.6583 261° West 81 93 20,000  Level Memphis Center
02:05PM 34.6044 -86.6858 287° West 110 127 20,000  Level Memphis Center
02:06PM 34.6094 -86.7083 285° West 88 101 20,000  Level Memphis Center
02:07PM 34.6172 -86.6903 62° Northeast 31 36 20,000  Level Memphis Center
02:08PM 34.6103 -86.6656 109° East 113 130 20,000  Level Memphis Center
02:09PM 34.6000 -86.6733 212° Southwest 83 96 20,000  Level Memphis Center
02:10PM 34.6089 -86.6958 296° West 93 107 20,000  Level Memphis Center
02:11PM 34.6236 -86.6928 10° North 63 72 20,000  Level Memphis Center
02:12PM 34.6403 -86.6919 North 67 77 20,000  Level Memphis Center
02:13PM 34.6347 -86.7150 254° West 58 67 20,000  Level Memphis Center
02:14PM 34.6217 -86.6978 133° Southeast 89 102 20,000  Level Memphis Center
02:15PM 34.6381 -86.6894 23° Northeast 47 54 20,000  Level Memphis Center
02:16PM 34.6367 -86.7122 266° West 60 69 20,000  Level Memphis Center
02:17PM 34.6197 -86.7028 155° Southeast 78 90 20,000  Level Memphis Center
02:18PM 34.6086 -86.6806 121° Southeast 72 83 20,000  Level Memphis Center
02:19PM 34.5953 -86.6586 126° Southeast 115 132 20,000  Level Memphis Center
02:20PM 34.5906 -86.6361 104° East 75 86 20,000  Level Memphis Center
02:21PM 34.6050 -86.6328 11° North 61 70 20,000  Level Memphis Center
02:22PM 34.6222 -86.6447 330° Northwest 93 107 20,000  Level Memphis Center
02:23PM 34.6292 -86.6697 289° West 104 120 20,000  Level Memphis Center
02:24PM 34.6319 -86.6972 277° West 63 72 20,000  Level Memphis Center
02:25PM 34.6136 -86.7133 216° Southwest 78 90 20,000  Level Memphis Center
02:26PM 34.6008 -86.6986 137° Southeast 73 84 20,000  Level Memphis Center
02:27PM 34.5917 -86.6764 117° Southeast 85 98 20,000  Level Memphis Center
02:28PM 34.5828 -86.6564 118° Southeast 78 90 20,000  Level Memphis Center
02:29PM 34.5883 -86.6336 73° East 71 82 20,000  Level Memphis Center
02:30PM 34.6072 -86.6328 North 76 87 20,000  Level Memphis Center
02:31PM 34.6239 -86.6397 341° North 81 93 20,000  Level Memphis Center
02:32PM 34.6292 -86.6672 283° West 76 87 20,000  Level Memphis Center
02:33PM 34.6339 -86.6947 282° West 93 107 20,000  Level Memphis Center
02:34PM 34.6200 -86.7156 231° Southwest 76 87 20,000  Level Memphis Center
02:35PM 34.6050 -86.6986 137° Southeast 85 98 20,000  Level Memphis Center
02:36PM 34.5939 -86.6764 121° Southeast 101 116 20,000  Level Memphis Center
02:37PM 34.5847 -86.6539 116° Southeast 94 108 20,000  Level Memphis Center
02:38PM 34.5947 -86.6383 52° Northeast 52 60 20,000  Level Memphis Center
02:39PM 34.6156 -86.6375 North 90 104 20,000  Level Memphis Center
02:40PM 34.6225 -86.6597 291° West 80 92 20,000  Level Memphis Center
02:41PM 34.6297 -86.6872 288° West 84 97 20,000  Level Memphis Center
02:42PM 34.6325 -86.7125 278° West 68 78 20,000  Level Memphis Center
02:43PM 34.6303 -86.7100 137° Southeast 9 10 20,000  Level Memphis Center
02:44PM 34.6156 -86.7056 166° South 57 66 20,000  Level Memphis Center
02:45PM 34.6064 -86.6808 114° Southeast 88 101 20,000  Level Memphis Center
02:46PM 34.5953 -86.6586 121° Southeast 87 100 20,000  Level Memphis Center
02:47PM 34.5906 -86.6361 104° East 74 85 20,000  Level Memphis Center
02:48PM 34.6050 -86.6328 11° North 51 59 20,000  Level Memphis Center
02:49PM 34.6222 -86.6447 330° Northwest 91 105 20,000  Level Memphis Center
02:50PM 34.6272 -86.6722 282° West 96 110 20,000  Level Memphis Center
02:51PM 34.6319 -86.6972 283° West 88 101 20,000  Level Memphis Center
02:52PM 34.6136 -86.7133 216° Southwest 73 84 20,000  Level Memphis Center
02:53PM 34.6008 -86.6986 137° Southeast 73 84 20,000  Level Memphis Center
02:54PM 34.5939 -86.6764 111° Southeast 94 108 20,000  Level Memphis Center
02:55PM 34.5828 -86.6564 124° Southeast 79 91 20,000  Level Memphis Center
02:56PM 34.5883 -86.6336 73° East 69 79 20,000  Level Memphis Center
02:57PM 34.6050 -86.6328 North 77 89 20,000  Level Memphis Center
02:58PM 34.6239 -86.6397 343° North 83 96 20,000  Level Memphis Center
02:59PM 34.6289 -86.6622 285° West 70 81 20,000  Level Memphis Center
03:00PM 34.6078 -86.6581 171° South 70 81 20,000  Level Memphis Center
03:01PM 34.5867 -86.6489 160° South 99 114 20,000  Level Memphis Center
03:02PM 34.5967 -86.6358 47° Northeast 87 100 20,000  Level Memphis Center
03:03PM 34.6156 -86.6375 356° North 85 98 20,000  Level Memphis Center
03:04PM 34.6247 -86.6622 294° West 94 108 20,000  Level Memphis Center
03:05PM 34.6297 -86.6925 281° West 105 121 20,000  Level Memphis Center
03:06PM 34.6175 -86.7006 208° Southwest 73 84 20,000  Level Memphis Center
03:07PM 34.6022 -86.6783 130° Southeast 60 69 20,000  Level Memphis Center
03:08PM 34.6081 -86.6606 68° East 113 130 20,000  Level Memphis Center
03:09PM 34.6231 -86.6725 327° Northwest 88 101 20,000  Level Memphis Center
03:10PM 34.6067 -86.6858 214° Southwest 99 114 20,000  Level Memphis Center
03:11PM 34.6039 -86.6631 98° East 68 78 20,000  Level Memphis Center
03:12PM 34.6167 -86.6753 322° Northwest 50 58 20,000  Level Memphis Center
03:13PM 34.6339 -86.6872 330° Northwest 94 108 20,000  Level Memphis Center
03:14PM 34.6408 -86.7119 289° West 67 77 20,000  Level Memphis Center
03:15PM 34.6239 -86.7053 162° South 68 78 20,000  Level Memphis Center
03:16PM 34.6339 -86.6872 56° Northeast 51 59 20,000  Level Memphis Center
03:17PM 34.6408 -86.7119 289° West 61 70 20,000  Level Memphis Center
03:18PM 34.6239 -86.7053 162° South 83 96 20,000  Level Memphis Center
03:19PM 34.6403 -86.6919 34° Northeast 36 41 20,000  Level Memphis Center
03:20PM 34.6631 -86.6908 North 110 127 20,000  Level Memphis Center
03:21PM 34.6658 -86.7136 278° West 79 91 20,000  Level Memphis Center
03:22PM 34.6486 -86.6992 145° Southeast 58 67 20,000  Level Memphis Center
03:23PM 34.6672 -86.6933 14° North 41 47 20,000  Level Memphis Center
03:24PM 34.6597 -86.7164 248° West 27 31 20,000 -8,340 Level Memphis Center
03:25PM 34.6547 -86.6914 104° East 27 31 3,400 -16,620 Descending Memphis Center